Weather at Moorea Temae Airport

Public forecast

Using degrees Celsius for public forecast. Weather courtesy of forecast.io.

Closest aviation weather report (METAR) to Moorea Temae Airport

Report is more than 6 hours old.

Closest report is Faa'a International Airport, 9.7 nm (17.9 km) ESE.

2022/11/14 15:30 (retrieved 2 years ago)

NTAA 141530Z 28004KT 220V350 9999 FEW021 BKN150 24/21 Q1011 NOSIG

Closest aviation forecast (TAF) to Moorea Temae Airport

Forecast is more than 12 hours old.

Closest forecast is Faa'a International Airport, 9.7 nm (17.9 km) ESE.

2023/02/22 18:04 (retrieved 1 year ago)

TAF NTAA 221700Z 2218/2324 VRB05KT 9999 FEW023 PROB40 TEMPO 2222/2324 36015G25KT 4000 SHRA FEW018CB SCT040 BECMG 2318/2320 36010KT